PGF weather

Perpignan-Rivesaltes (Llabanère) Airport
Perpignan/Rivesaltes, Languedoc-Roussillon, France

Public forecast

Using degrees Celsius for public forecast. Weather courtesy of forecast.io.

METAR (pilot weather report)

Retrieved 2019/05/25 22:30 UTC (0 seconds ago):

LFMP 252230Z AUTO 31018G32KT 280V340 9999 BKN092/// OVC110/// 18/11 Q1018

TAF (pilot weather forecast)

Retrieved 2019/05/25 21:36 UTC (48 minutes ago):

TAF TAF LFMP 252133Z 2521/2615 CNL